BOV620 SLLP-SLCB
Flight info
| Callsign | BOV620 |
|---|---|
| Flight time | 0h 34m |
| Altitude | 28000 |
| Route | DAKOG UW677 TEDOK |
| Aircraft | B738/M-SDE2E3FGHIRWXY/LB1 |
Departure
| Time | 2026-05-06 22:48 |
|---|---|
| Airport | El Alto International Airport (SLLP) |
Arrival
| Time | 2026-05-06 23:22 |
|---|---|
| Airport | Jorge Wilsterman International Airport (SLCB) |
| Time | Latitude | Longitude | Altitude | Speed | Heading |
|---|---|---|---|---|---|
| 2026-05-06 22:20 | -16.50989 | -68.17874 | 13321 ft | 0 kts | 2° |
| 2026-05-06 22:39 | -16.50990 | -68.17874 | 13321 ft | 1 kts | 2° |
| 2026-05-06 22:39 | -16.51005 | -68.17875 | 13321 ft | 2 kts | 2° |
| 2026-05-06 22:40 | -16.51022 | -68.17875 | 13321 ft | 2 kts | 2° |
| 2026-05-06 22:40 | -16.51038 | -68.17876 | 13321 ft | 2 kts | 6° |
| 2026-05-06 22:40 | -16.51052 | -68.17882 | 13321 ft | 2 kts | 54° |
| 2026-05-06 22:40 | -16.51055 | -68.17891 | 13321 ft | 1 kts | 95° |
| 2026-05-06 22:41 | -16.51055 | -68.17893 | 13321 ft | 0 kts | 96° |
| 2026-05-06 22:43 | -16.51056 | -68.17884 | 13321 ft | 5 kts | 95° |
| 2026-05-06 22:43 | -16.51058 | -68.17830 | 13321 ft | 10 kts | 92° |
| 2026-05-06 22:43 | -16.51061 | -68.17745 | 13321 ft | 13 kts | 92° |
| 2026-05-06 22:43 | -16.51066 | -68.17653 | 13321 ft | 12 kts | 105° |
| 2026-05-06 22:44 | -16.51109 | -68.17578 | 13321 ft | 12 kts | 131° |
| 2026-05-06 22:44 | -16.51166 | -68.17517 | 13321 ft | 11 kts | 135° |
| 2026-05-06 22:44 | -16.51223 | -68.17461 | 13321 ft | 11 kts | 137° |
| 2026-05-06 22:44 | -16.51279 | -68.17408 | 13321 ft | 11 kts | 139° |
| 2026-05-06 22:45 | -16.51345 | -68.17387 | 13321 ft | 10 kts | 176° |
| 2026-05-06 22:45 | -16.51388 | -68.17420 | 13321 ft | 8 kts | 264° |
| 2026-05-06 22:45 | -16.51389 | -68.17432 | 13321 ft | 0 kts | 275° |
| 2026-05-06 22:46 | -16.51389 | -68.17435 | 13321 ft | 2 kts | 273° |
| 2026-05-06 22:46 | -16.51388 | -68.17458 | 13321 ft | 3 kts | 272° |
| 2026-05-06 22:47 | -16.51384 | -68.17567 | 13321 ft | 38 kts | 271° |
| 2026-05-06 22:47 | -16.51372 | -68.18017 | 13321 ft | 86 kts | 271° |
| 2026-05-06 22:47 | -16.51348 | -68.18798 | 13321 ft | 128 kts | 272° |
| 2026-05-06 22:47 | -16.51313 | -68.19863 | 13322 ft | 166 kts | 271° |
| 2026-05-06 22:48 | -16.51285 | -68.21178 | 13417 ft | 190 kts | 271° |
| 2026-05-06 22:48 | -16.51240 | -68.22619 | 13631 ft | 208 kts | 269° |
| 2026-05-06 22:48 | -16.51229 | -68.24140 | 14187 ft | 210 kts | 270° |
| 2026-05-06 22:48 | -16.51184 | -68.25651 | 14733 ft | 213 kts | 271° |
| 2026-05-06 22:49 | -16.51115 | -68.27192 | 15243 ft | 215 kts | 271° |
| 2026-05-06 22:49 | -16.51043 | -68.28801 | 15400 ft | 230 kts | 272° |
| 2026-05-06 22:49 | -16.50991 | -68.30521 | 15549 ft | 244 kts | 266° |
| 2026-05-06 22:49 | -16.51492 | -68.32246 | 15678 ft | 257 kts | 239° |
| 2026-05-06 22:50 | -16.52747 | -68.33634 | 15796 ft | 274 kts | 214° |
| 2026-05-06 22:50 | -16.54566 | -68.34352 | 15932 ft | 291 kts | 186° |
| 2026-05-06 22:50 | -16.56590 | -68.33999 | 16198 ft | 304 kts | 156° |
| 2026-05-06 22:50 | -16.58278 | -68.32615 | 16392 ft | 321 kts | 128° |
| 2026-05-06 22:51 | -16.59380 | -68.30562 | 16571 ft | 336 kts | 115° |
| 2026-05-06 22:51 | -16.60259 | -68.28236 | 16764 ft | 350 kts | 111° |
| 2026-05-06 22:51 | -16.61138 | -68.25815 | 16948 ft | 363 kts | 112° |
| 2026-05-06 22:51 | -16.62133 | -68.23355 | 17128 ft | 374 kts | 115° |
| 2026-05-06 22:52 | -16.63239 | -68.20863 | 17295 ft | 384 kts | 116° |
| 2026-05-06 22:52 | -16.64420 | -68.18316 | 17448 ft | 394 kts | 117° |
| 2026-05-06 22:52 | -16.65654 | -68.15722 | 17610 ft | 403 kts | 117° |
| 2026-05-06 22:52 | -16.66911 | -68.13088 | 17842 ft | 408 kts | 117° |
| 2026-05-06 22:53 | -16.68178 | -68.10434 | 18170 ft | 411 kts | 118° |
| 2026-05-06 22:53 | -16.69463 | -68.07754 | 18501 ft | 413 kts | 117° |
| 2026-05-06 22:53 | -16.70752 | -68.05072 | 18827 ft | 415 kts | 118° |
| 2026-05-06 22:53 | -16.72036 | -68.02402 | 19141 ft | 418 kts | 118° |
| 2026-05-06 22:54 | -16.73374 | -67.99661 | 19446 ft | 420 kts | 118° |
| 2026-05-06 22:54 | -16.74543 | -67.96890 | 19743 ft | 424 kts | 112° |
| 2026-05-06 22:54 | -16.75449 | -67.93949 | 20036 ft | 427 kts | 108° |
| 2026-05-06 22:54 | -16.76207 | -67.90951 | 20362 ft | 428 kts | 105° |
| 2026-05-06 22:55 | -16.76925 | -67.87925 | 20697 ft | 429 kts | 106° |
| 2026-05-06 22:55 | -16.77655 | -67.84900 | 21002 ft | 431 kts | 106° |
| 2026-05-06 22:55 | -16.78399 | -67.81858 | 21264 ft | 433 kts | 106° |
| 2026-05-06 22:55 | -16.79147 | -67.78814 | 21567 ft | 434 kts | 106° |
| 2026-05-06 22:56 | -16.79904 | -67.75743 | 21779 ft | 438 kts | 106° |
| 2026-05-06 22:56 | -16.80666 | -67.72656 | 22011 ft | 440 kts | 106° |
| 2026-05-06 22:56 | -16.81433 | -67.69562 | 22312 ft | 440 kts | 106° |
| 2026-05-06 22:56 | -16.82219 | -67.66462 | 22566 ft | 442 kts | 106° |
| 2026-05-06 22:57 | -16.82998 | -67.63360 | 22809 ft | 443 kts | 106° |
| 2026-05-06 22:57 | -16.83772 | -67.60231 | 23051 ft | 445 kts | 107° |
| 2026-05-06 22:57 | -16.84548 | -67.57100 | 23248 ft | 448 kts | 106° |
| 2026-05-06 22:57 | -16.85327 | -67.53946 | 23476 ft | 449 kts | 106° |
| 2026-05-06 22:58 | -16.86105 | -67.50787 | 23739 ft | 450 kts | 106° |
| 2026-05-06 22:58 | -16.86880 | -67.47654 | 23969 ft | 451 kts | 106° |
| 2026-05-06 22:58 | -16.87659 | -67.44483 | 24250 ft | 451 kts | 106° |
| 2026-05-06 22:58 | -16.88439 | -67.41316 | 24571 ft | 450 kts | 106° |
| 2026-05-06 22:59 | -16.89239 | -67.38160 | 24879 ft | 448 kts | 108° |
| 2026-05-06 22:59 | -16.90261 | -67.35100 | 25213 ft | 445 kts | 114° |
| 2026-05-06 22:59 | -16.91508 | -67.32143 | 25542 ft | 444 kts | 116° |
| 2026-05-06 22:59 | -16.92824 | -67.29227 | 25796 ft | 444 kts | 117° |
| 2026-05-06 23:00 | -16.94136 | -67.26311 | 26070 ft | 444 kts | 117° |
| 2026-05-06 23:00 | -16.95445 | -67.23386 | 26296 ft | 445 kts | 117° |
| 2026-05-06 23:00 | -16.96738 | -67.20476 | 26888 ft | 436 kts | 117° |
| 2026-05-06 23:00 | -16.98011 | -67.17608 | 27121 ft | 435 kts | 117° |
| 2026-05-06 23:01 | -16.99279 | -67.14748 | 27275 ft | 435 kts | 117° |
| 2026-05-06 23:01 | -17.00537 | -67.11900 | 27285 ft | 437 kts | 116° |
| 2026-05-06 23:01 | -17.01819 | -67.09007 | 27289 ft | 440 kts | 117° |
| 2026-05-06 23:01 | -17.03105 | -67.06104 | 27291 ft | 442 kts | 116° |
| 2026-05-06 23:02 | -17.04407 | -67.03177 | 27291 ft | 444 kts | 117° |
| 2026-05-06 23:02 | -17.05719 | -67.00244 | 27291 ft | 445 kts | 117° |
| 2026-05-06 23:02 | -17.07022 | -66.97314 | 27290 ft | 446 kts | 117° |
| 2026-05-06 23:02 | -17.08327 | -66.94365 | 27293 ft | 447 kts | 117° |
| 2026-05-06 23:03 | -17.09631 | -66.91411 | 27291 ft | 447 kts | 117° |
| 2026-05-06 23:03 | -17.10931 | -66.88457 | 27290 ft | 447 kts | 117° |
| 2026-05-06 23:03 | -17.12231 | -66.85508 | 27291 ft | 448 kts | 116° |
| 2026-05-06 23:03 | -17.13092 | -66.83549 | 27291 ft | 447 kts | 116° |
| 2026-05-06 23:04 | -17.14830 | -66.79597 | 27292 ft | 447 kts | 117° |
| 2026-05-06 23:04 | -17.15692 | -66.77635 | 27292 ft | 448 kts | 116° |
| 2026-05-06 23:04 | -17.16999 | -66.74671 | 27292 ft | 445 kts | 116° |
| 2026-05-06 23:04 | -17.18655 | -66.70778 | 27291 ft | 441 kts | 114° |
| 2026-05-06 23:05 | -17.19423 | -66.68762 | 27289 ft | 438 kts | 113° |
| 2026-05-06 23:05 | -17.20509 | -66.65789 | 27293 ft | 440 kts | 113° |
| 2026-05-06 23:05 | -17.21612 | -66.62792 | 27143 ft | 441 kts | 113° |
| 2026-05-06 23:05 | -17.22700 | -66.59858 | 26844 ft | 435 kts | 113° |
| 2026-05-06 23:06 | -17.23794 | -66.56927 | 26386 ft | 432 kts | 113° |
| 2026-05-06 23:06 | -17.24890 | -66.53996 | 25916 ft | 430 kts | 113° |
| 2026-05-06 23:06 | -17.25979 | -66.51094 | 25450 ft | 427 kts | 113° |
| 2026-05-06 23:06 | -17.27063 | -66.48208 | 24988 ft | 425 kts | 113° |
| 2026-05-06 23:07 | -17.28142 | -66.45332 | 24525 ft | 423 kts | 113° |
| 2026-05-06 23:07 | -17.29214 | -66.42475 | 24064 ft | 421 kts | 113° |
| 2026-05-06 23:07 | -17.30286 | -66.39627 | 23600 ft | 418 kts | 113° |
| 2026-05-06 23:07 | -17.31355 | -66.36804 | 23140 ft | 416 kts | 114° |
| 2026-05-06 23:08 | -17.32421 | -66.33989 | 22677 ft | 414 kts | 113° |
| 2026-05-06 23:08 | -17.33453 | -66.31250 | 22189 ft | 396 kts | 114° |
| 2026-05-06 23:08 | -17.34431 | -66.28653 | 21826 ft | 378 kts | 114° |
| 2026-05-06 23:08 | -17.35377 | -66.26132 | 21250 ft | 369 kts | 114° |
| 2026-05-06 23:09 | -17.36323 | -66.23616 | 20692 ft | 372 kts | 114° |
| 2026-05-06 23:09 | -17.37261 | -66.21113 | 20424 ft | 367 kts | 114° |
| 2026-05-06 23:09 | -17.38187 | -66.18638 | 20147 ft | 363 kts | 114° |
| 2026-05-06 23:09 | -17.39097 | -66.16213 | 19810 ft | 350 kts | 114° |
| 2026-05-06 23:10 | -17.39954 | -66.13923 | 19732 ft | 325 kts | 114° |
| 2026-05-06 23:10 | -17.40759 | -66.11798 | 19561 ft | 305 kts | 114° |
| 2026-05-06 23:10 | -17.41515 | -66.09792 | 19405 ft | 287 kts | 114° |
| 2026-05-06 23:10 | -17.42223 | -66.07906 | 19221 ft | 272 kts | 114° |
| 2026-05-06 23:11 | -17.42912 | -66.06064 | 18932 ft | 270 kts | 114° |
| 2026-05-06 23:11 | -17.43588 | -66.04261 | 18653 ft | 268 kts | 114° |
| 2026-05-06 23:11 | -17.44273 | -66.02426 | 18362 ft | 266 kts | 113° |
| 2026-05-06 23:11 | -17.44936 | -66.00646 | 18072 ft | 265 kts | 113° |
| 2026-05-06 23:12 | -17.45604 | -65.98850 | 17776 ft | 263 kts | 113° |
| 2026-05-06 23:12 | -17.46270 | -65.97063 | 17476 ft | 262 kts | 113° |
| 2026-05-06 23:12 | -17.46931 | -65.95289 | 17204 ft | 260 kts | 113° |
| 2026-05-06 23:12 | -17.47588 | -65.93521 | 17017 ft | 259 kts | 113° |
| 2026-05-06 23:13 | -17.48236 | -65.91780 | 16994 ft | 256 kts | 113° |
| 2026-05-06 23:13 | -17.48887 | -65.90029 | 17003 ft | 260 kts | 113° |
| 2026-05-06 23:13 | -17.49555 | -65.88239 | 17012 ft | 266 kts | 112° |
| 2026-05-06 23:13 | -17.50225 | -65.86439 | 17006 ft | 265 kts | 112° |
| 2026-05-06 23:14 | -17.50900 | -65.84632 | 17000 ft | 265 kts | 114° |
| 2026-05-06 23:14 | -17.51929 | -65.83083 | 16950 ft | 260 kts | 144° |
| 2026-05-06 23:14 | -17.53564 | -65.82388 | 16808 ft | 255 kts | 177° |
| 2026-05-06 23:14 | -17.55255 | -65.82755 | 16451 ft | 253 kts | 211° |
| 2026-05-06 23:15 | -17.56413 | -65.84068 | 16172 ft | 248 kts | 246° |
| 2026-05-06 23:15 | -17.56648 | -65.85859 | 15839 ft | 251 kts | 275° |
| 2026-05-06 23:15 | -17.56342 | -65.87627 | 15507 ft | 241 kts | 278° |
| 2026-05-06 23:15 | -17.56286 | -65.89339 | 15191 ft | 230 kts | 261° |
| 2026-05-06 23:16 | -17.56726 | -65.90915 | 14887 ft | 222 kts | 246° |
| 2026-05-06 23:16 | -17.57407 | -65.92329 | 14595 ft | 220 kts | 241° |
| 2026-05-06 23:16 | -17.58153 | -65.93731 | 14283 ft | 220 kts | 240° |
| 2026-05-06 23:16 | -17.58897 | -65.95132 | 13969 ft | 219 kts | 240° |
| 2026-05-06 23:17 | -17.59468 | -65.96597 | 13625 ft | 219 kts | 263° |
| 2026-05-06 23:17 | -17.59131 | -65.98124 | 13305 ft | 219 kts | 298° |
| 2026-05-06 23:17 | -17.58195 | -65.99373 | 13002 ft | 219 kts | 310° |
| 2026-05-06 23:17 | -17.57123 | -66.00514 | 12669 ft | 219 kts | 314° |
| 2026-05-06 23:18 | -17.56051 | -66.01641 | 12343 ft | 219 kts | 313° |
| 2026-05-06 23:18 | -17.55008 | -66.02787 | 12035 ft | 213 kts | 312° |
| 2026-05-06 23:18 | -17.54030 | -66.03892 | 11715 ft | 202 kts | 311° |
| 2026-05-06 23:18 | -17.53093 | -66.04966 | 11425 ft | 197 kts | 311° |
| 2026-05-06 23:19 | -17.52182 | -66.06018 | 11141 ft | 193 kts | 310° |
| 2026-05-06 23:19 | -17.51279 | -66.07066 | 10870 ft | 195 kts | 310° |
| 2026-05-06 23:19 | -17.50377 | -66.08118 | 10637 ft | 189 kts | 310° |
| 2026-05-06 23:19 | -17.49513 | -66.09121 | 10350 ft | 181 kts | 310° |
| 2026-05-06 23:20 | -17.48686 | -66.10083 | 10104 ft | 175 kts | 310° |
| 2026-05-06 23:20 | -17.47865 | -66.11036 | 9879 ft | 177 kts | 310° |
| 2026-05-06 23:20 | -17.47041 | -66.11993 | 9641 ft | 177 kts | 310° |
| 2026-05-06 23:20 | -17.46236 | -66.12928 | 9400 ft | 173 kts | 310° |
| 2026-05-06 23:21 | -17.45419 | -66.13875 | 9158 ft | 173 kts | 310° |
| 2026-05-06 23:21 | -17.44607 | -66.14821 | 8884 ft | 175 kts | 310° |
| 2026-05-06 23:21 | -17.43796 | -66.15750 | 8644 ft | 174 kts | 311° |
| 2026-05-06 23:21 | -17.42979 | -66.16684 | 8416 ft | 173 kts | 311° |
| 2026-05-06 23:22 | -17.42257 | -66.17525 | 8369 ft | 121 kts | 311° |
| 2026-05-06 23:22 | -17.41877 | -66.17978 | 8368 ft | 50 kts | 312° |
| 2026-05-06 23:22 | -17.41720 | -66.18164 | 8368 ft | 21 kts | 313° |
| 2026-05-06 23:22 | -17.41620 | -66.18190 | 8368 ft | 17 kts | 39° |
| 2026-05-06 23:23 | -17.41531 | -66.18113 | 8368 ft | 16 kts | 40° |
| 2026-05-06 23:23 | -17.41457 | -66.18041 | 8368 ft | 12 kts | 44° |
| 2026-05-06 23:23 | -17.41417 | -66.18000 | 8368 ft | 0 kts | 46° |